sensor_id;sensor_type;location;lat;lon;timestamp;temperature;humidity
69938;DHT22;57248;47.320;15.998;2023-02-21T00:00:53;0.94;86.98
69938;DHT22;57248;47.320;15.998;2023-02-21T00:03:43;0.94;86.21
69938;DHT22;57248;47.320;15.998;2023-02-21T00:06:34;0.88;87.01
69938;DHT22;57248;47.320;15.998;2023-02-21T00:09:24;0.98;86.64
69938;DHT22;57248;47.320;15.998;2023-02-21T00:12:14;0.97;85.95
69938;DHT22;57248;47.320;15.998;2023-02-21T00:15:05;0.93;86.33
69938;DHT22;57248;47.320;15.998;2023-02-21T00:17:55;0.85;85.97
69938;DHT22;57248;47.320;15.998;2023-02-21T00:20:45;0.87;85.84
69938;DHT22;57248;47.320;15.998;2023-02-21T00:23:36;0.66;87.52
69938;DHT22;57248;47.320;15.998;2023-02-21T00:26:26;0.69;88.47
69938;DHT22;57248;47.320;15.998;2023-02-21T00:29:17;0.79;87.41
69938;DHT22;57248;47.320;15.998;2023-02-21T00:32:07;0.72;86.84
69938;DHT22;57248;47.320;15.998;2023-02-21T00:34:57;0.50;87.71
69938;DHT22;57248;47.320;15.998;2023-02-21T00:37:51;0.52;88.49
69938;DHT22;57248;47.320;15.998;2023-02-21T00:40:43;0.50;87.79
69938;DHT22;57248;47.320;15.998;2023-02-21T00:43:35;0.56;87.70
69938;DHT22;57248;47.320;15.998;2023-02-21T00:46:25;0.54;86.61
69938;DHT22;57248;47.320;15.998;2023-02-21T00:49:15;0.42;87.68
69938;DHT22;57248;47.320;15.998;2023-02-21T00:52:06;0.38;87.40
69938;DHT22;57248;47.320;15.998;2023-02-21T00:55:04;0.29;87.46
69938;DHT22;57248;47.320;15.998;2023-02-21T00:57:54;0.35;87.39
69938;DHT22;57248;47.320;15.998;2023-02-21T01:00:44;0.28;87.35
69938;DHT22;57248;47.320;15.998;2023-02-21T01:03:34;0.32;87.99
69938;DHT22;57248;47.320;15.998;2023-02-21T01:06:25;0.23;86.97
69938;DHT22;57248;47.320;15.998;2023-02-21T01:09:15;0.26;87.71
69938;DHT22;57248;47.320;15.998;2023-02-21T01:12:05;0.26;88.26
69938;DHT22;57248;47.320;15.998;2023-02-21T01:14:57;0.23;88.07
69938;DHT22;57248;47.320;15.998;2023-02-21T01:17:47;0.21;87.88
69938;DHT22;57248;47.320;15.998;2023-02-21T01:20:38;0.04;89.34
69938;DHT22;57248;47.320;15.998;2023-02-21T01:23:32;0.12;88.57
69938;DHT22;57248;47.320;15.998;2023-02-21T01:26:22;0.15;88.15
69938;DHT22;57248;47.320;15.998;2023-02-21T01:29:12;-0.03;88.77
69938;DHT22;57248;47.320;15.998;2023-02-21T01:32:02;0.11;88.54
69938;DHT22;57248;47.320;15.998;2023-02-21T01:34:53;-0.02;88.34
69938;DHT22;57248;47.320;15.998;2023-02-21T01:37:59;-0.01;87.66
69938;DHT22;57248;47.320;15.998;2023-02-21T01:40:49;-0.01;88.05
69938;DHT22;57248;47.320;15.998;2023-02-21T01:46:47;-0.03;90.44
69938;DHT22;57248;47.320;15.998;2023-02-21T01:49:39;-0.12;90.24
69938;DHT22;57248;47.320;15.998;2023-02-21T01:52:36;-0.16;90.55
69938;DHT22;57248;47.320;15.998;2023-02-21T01:55:37;-0.09;90.14
69938;DHT22;57248;47.320;15.998;2023-02-21T01:58:30;-0.17;90.25
69938;DHT22;57248;47.320;15.998;2023-02-21T02:01:36;-0.23;89.45
69938;DHT22;57248;47.320;15.998;2023-02-21T02:04:30;-0.15;89.48
69938;DHT22;57248;47.320;15.998;2023-02-21T02:07:20;-0.13;89.82
69938;DHT22;57248;47.320;15.998;2023-02-21T02:10:12;-0.20;88.62
69938;DHT22;57248;47.320;15.998;2023-02-21T02:13:20;-0.12;89.62
69938;DHT22;57248;47.320;15.998;2023-02-21T02:24:31;-0.15;89.81
69938;DHT22;57248;47.320;15.998;2023-02-21T02:36:09;-0.12;89.83
69938;DHT22;57248;47.320;15.998;2023-02-21T02:38:53;-0.12;89.29
69938;DHT22;57248;47.320;15.998;2023-02-21T02:41:40;-0.26;91.83
69938;DHT22;57248;47.320;15.998;2023-02-21T02:44:31;-0.23;90.52
69938;DHT22;57248;47.320;15.998;2023-02-21T02:47:14;-0.30;91.18
69938;DHT22;57248;47.320;15.998;2023-02-21T02:49:47;-0.17;90.73
69938;DHT22;57248;47.320;15.998;2023-02-21T02:52:27;-0.22;91.15
69938;DHT22;57248;47.320;15.998;2023-02-21T02:55:02;-0.16;90.80
69938;DHT22;57248;47.320;15.998;2023-02-21T02:57:41;-0.22;90.12
69938;DHT22;57248;47.320;15.998;2023-02-21T03:00:20;-0.17;89.55
69938;DHT22;57248;47.320;15.998;2023-02-21T03:06:07;-0.03;91.06
69938;DHT22;57248;47.320;15.998;2023-02-21T03:08:54;-0.26;90.79
69938;DHT22;57248;47.320;15.998;2023-02-21T03:11:29;-0.17;91.59
69938;DHT22;57248;47.320;15.998;2023-02-21T03:14:11;-0.09;90.34
69938;DHT22;57248;47.320;15.998;2023-02-21T03:16:55;-0.15;91.29
69938;DHT22;57248;47.320;15.998;2023-02-21T03:19:32;-0.20;91.01
69938;DHT22;57248;47.320;15.998;2023-02-21T03:22:12;-0.13;90.48
69938;DHT22;57248;47.320;15.998;2023-02-21T03:24:47;-0.12;90.34
69938;DHT22;57248;47.320;15.998;2023-02-21T03:27:21;-0.07;90.49
69938;DHT22;57248;47.320;15.998;2023-02-21T03:30:14;-0.13;90.72
69938;DHT22;57248;47.320;15.998;2023-02-21T03:32:50;-0.17;90.60
69938;DHT22;57248;47.320;15.998;2023-02-21T03:35:27;-0.22;91.13
69938;DHT22;57248;47.320;15.998;2023-02-21T03:38:01;-0.26;90.49
69938;DHT22;57248;47.320;15.998;2023-02-21T03:40:33;-0.12;90.46
69938;DHT22;57248;47.320;15.998;2023-02-21T03:43:06;-0.12;89.58
69938;DHT22;57248;47.320;15.998;2023-02-21T03:45:46;-0.10;89.93
69938;DHT22;57248;47.320;15.998;2023-02-21T03:48:19;-0.03;91.01
69938;DHT22;57248;47.320;15.998;2023-02-21T03:50:51;-0.03;90.28
69938;DHT22;57248;47.320;15.998;2023-02-21T03:53:34;-0.13;90.57
69938;DHT22;57248;47.320;15.998;2023-02-21T03:56:08;-0.10;90.52
69938;DHT22;57248;47.320;15.998;2023-02-21T03:58:59;-0.17;90.21
69938;DHT22;57248;47.320;15.998;2023-02-21T04:01:32;-0.22;89.97
69938;DHT22;57248;47.320;15.998;2023-02-21T04:03:59;-0.20;90.66
69938;DHT22;57248;47.320;15.998;2023-02-21T04:06:31;-0.15;90.50
69938;DHT22;57248;47.320;15.998;2023-02-21T04:08:57;-0.10;90.66
69938;DHT22;57248;47.320;15.998;2023-02-21T04:11:30;-0.10;90.78
69938;DHT22;57248;47.320;15.998;2023-02-21T04:14:02;-0.02;90.85
69938;DHT22;57248;47.320;15.998;2023-02-21T04:16:35;-0.13;90.54
69938;DHT22;57248;47.320;15.998;2023-02-21T04:19:07;-0.06;90.56
69938;DHT22;57248;47.320;15.998;2023-02-21T04:21:40;-0.10;91.20
69938;DHT22;57248;47.320;15.998;2023-02-21T04:24:13;-0.02;90.48
69938;DHT22;57248;47.320;15.998;2023-02-21T04:26:45;-0.03;89.94
69938;DHT22;57248;47.320;15.998;2023-02-21T04:29:17;-0.03;90.02
69938;DHT22;57248;47.320;15.998;2023-02-21T04:31:50;-0.16;89.64
69938;DHT22;57248;47.320;15.998;2023-02-21T04:34:22;-0.13;89.91
69938;DHT22;57248;47.320;15.998;2023-02-21T04:36:54;-0.23;91.07
69938;DHT22;57248;47.320;15.998;2023-02-21T04:39:27;-0.19;90.73
69938;DHT22;57248;47.320;15.998;2023-02-21T04:41:59;-0.17;90.59
69938;DHT22;57248;47.320;15.998;2023-02-21T04:44:24;-0.19;91.71
69938;DHT22;57248;47.320;15.998;2023-02-21T04:46:56;-0.15;91.19
69938;DHT22;57248;47.320;15.998;2023-02-21T04:49:28;-0.17;90.47
69938;DHT22;57248;47.320;15.998;2023-02-21T04:52:00;-0.09;90.60
69938;DHT22;57248;47.320;15.998;2023-02-21T04:54:32;-0.10;90.33
69938;DHT22;57248;47.320;15.998;2023-02-21T04:57:12;0.21;93.20
69938;DHT22;57248;47.320;15.998;2023-02-21T04:59:43;-0.13;91.03
69938;DHT22;57248;47.320;15.998;2023-02-21T05:02:15;-0.10;91.01
69938;DHT22;57248;47.320;15.998;2023-02-21T05:04:47;-0.20;90.98
69938;DHT22;57248;47.320;15.998;2023-02-21T05:07:20;-0.16;90.26
69938;DHT22;57248;47.320;15.998;2023-02-21T05:09:51;0.04;91.83
69938;DHT22;57248;47.320;15.998;2023-02-21T05:12:23;-0.13;91.07
69938;DHT22;57248;47.320;15.998;2023-02-21T05:14:56;-0.13;91.25
69938;DHT22;57248;47.320;15.998;2023-02-21T05:17:21;-0.06;90.28
69938;DHT22;57248;47.320;15.998;2023-02-21T05:19:54;-0.07;90.89
69938;DHT22;57248;47.320;15.998;2023-02-21T05:22:26;-0.05;91.01
69938;DHT22;57248;47.320;15.998;2023-02-21T05:24:57;-0.02;90.58
69938;DHT22;57248;47.320;15.998;2023-02-21T05:27:29;-0.16;90.71
69938;DHT22;57248;47.320;15.998;2023-02-21T05:30:01;-0.03;90.33
69938;DHT22;57248;47.320;15.998;2023-02-21T05:32:33;1.03;91.02
69938;DHT22;57248;47.320;15.998;2023-02-21T05:35:07;0.41;89.51
69938;DHT22;57248;47.320;15.998;2023-02-21T05:37:38;0.02;89.58
69938;DHT22;57248;47.320;15.998;2023-02-21T05:40:10;0.14;90.29
69938;DHT22;57248;47.320;15.998;2023-02-21T05:42:43;-0.10;90.04
69938;DHT22;57248;47.320;15.998;2023-02-21T05:45:15;-0.32;91.63
69938;DHT22;57248;47.320;15.998;2023-02-21T05:47:46;-0.22;90.55
69938;DHT22;57248;47.320;15.998;2023-02-21T05:50:18;-0.15;89.83
69938;DHT22;57248;47.320;15.998;2023-02-21T05:52:58;0.26;88.67
69938;DHT22;57248;47.320;15.998;2023-02-21T05:55:30;0.21;87.59
69938;DHT22;57248;47.320;15.998;2023-02-21T05:57:56;0.11;89.74
69938;DHT22;57248;47.320;15.998;2023-02-21T06:00:29;-0.03;89.31
69938;DHT22;57248;47.320;15.998;2023-02-21T06:03:00;0.04;89.15
69938;DHT22;57248;47.320;15.998;2023-02-21T06:05:32;0.01;89.50
69938;DHT22;57248;47.320;15.998;2023-02-21T06:08:04;0.04;89.45
69938;DHT22;57248;47.320;15.998;2023-02-21T06:10:36;0.25;88.72
69938;DHT22;57248;47.320;15.998;2023-02-21T06:13:08;0.29;88.66
69938;DHT22;57248;47.320;15.998;2023-02-21T06:15:40;0.32;88.04
69938;DHT22;57248;47.320;15.998;2023-02-21T06:18:14;0.21;88.53
69938;DHT22;57248;47.320;15.998;2023-02-21T06:20:46;0.25;88.86
69938;DHT22;57248;47.320;15.998;2023-02-21T06:23:18;0.28;89.37
69938;DHT22;57248;47.320;15.998;2023-02-21T06:25:44;0.42;88.44
69938;DHT22;57248;47.320;15.998;2023-02-21T06:28:17;0.76;87.84
69938;DHT22;57248;47.320;15.998;2023-02-21T06:30:49;1.07;86.87
69938;DHT22;57248;47.320;15.998;2023-02-21T06:33:22;1.34;86.45
69938;DHT22;57248;47.320;15.998;2023-02-21T06:35:55;1.77;85.24
69938;DHT22;57248;47.320;15.998;2023-02-21T06:38:26;2.07;84.35
69938;DHT22;57248;47.320;15.998;2023-02-21T06:40:59;2.48;83.49
69938;DHT22;57248;47.320;15.998;2023-02-21T06:43:25;2.72;83.09
69938;DHT22;57248;47.320;15.998;2023-02-21T06:45:56;3.06;81.91
69938;DHT22;57248;47.320;15.998;2023-02-21T06:48:29;3.43;80.81
69938;DHT22;57248;47.320;15.998;2023-02-21T06:51:02;3.85;79.26
69938;DHT22;57248;47.320;15.998;2023-02-21T06:53:36;4.28;77.63
69938;DHT22;57248;47.320;15.998;2023-02-21T06:56:17;4.91;78.49
69938;DHT22;57248;47.320;15.998;2023-02-21T06:58:49;5.36;77.60
69938;DHT22;57248;47.320;15.998;2023-02-21T07:01:21;5.70;75.90
69938;DHT22;57248;47.320;15.998;2023-02-21T07:03:55;6.17;75.79
69938;DHT22;57248;47.320;15.998;2023-02-21T07:06:28;6.42;73.86
69938;DHT22;57248;47.320;15.998;2023-02-21T07:08:59;6.80;71.46
69938;DHT22;57248;47.320;15.998;2023-02-21T07:11:33;7.20;72.12
69938;DHT22;57248;47.320;15.998;2023-02-21T07:14:06;7.35;70.65
69938;DHT22;57248;47.320;15.998;2023-02-21T07:16:37;7.69;71.59
69938;DHT22;57248;47.320;15.998;2023-02-21T07:19:10;7.96;70.32
69938;DHT22;57248;47.320;15.998;2023-02-21T07:21:40;8.24;67.35
69938;DHT22;57248;47.320;15.998;2023-02-21T07:24:13;8.22;69.39
69938;DHT22;57248;47.320;15.998;2023-02-21T07:26:38;8.76;67.74
69938;DHT22;57248;47.320;15.998;2023-02-21T07:29:10;9.26;66.84
69938;DHT22;57248;47.320;15.998;2023-02-21T07:31:43;8.26;67.85
69938;DHT22;57248;47.320;15.998;2023-02-21T07:34:15;8.43;68.77
69938;DHT22;57248;47.320;15.998;2023-02-21T07:36:48;7.85;69.43
69938;DHT22;57248;47.320;15.998;2023-02-21T07:39:20;7.78;70.27
69938;DHT22;57248;47.320;15.998;2023-02-21T07:41:52;7.85;70.78
69938;DHT22;57248;47.320;15.998;2023-02-21T07:44:28;7.14;73.05
69938;DHT22;57248;47.320;15.998;2023-02-21T07:47:00;7.24;73.17
69938;DHT22;57248;47.320;15.998;2023-02-21T07:49:37;8.00;70.18
69938;DHT22;57248;47.320;15.998;2023-02-21T07:52:16;8.17;68.29
69938;DHT22;57248;47.320;15.998;2023-02-21T07:54:48;8.27;67.60
69938;DHT22;57248;47.320;15.998;2023-02-21T07:57:27;8.81;67.25
69938;DHT22;57248;47.320;15.998;2023-02-21T07:59:59;9.13;64.04
69938;DHT22;57248;47.320;15.998;2023-02-21T08:02:38;9.51;64.76
69938;DHT22;57248;47.320;15.998;2023-02-21T08:05:09;9.60;60.59
69938;DHT22;57248;47.320;15.998;2023-02-21T08:07:42;9.58;61.38
69938;DHT22;57248;47.320;15.998;2023-02-21T08:10:20;9.77;62.10
69938;DHT22;57248;47.320;15.998;2023-02-21T08:12:52;9.88;62.61
69938;DHT22;57248;47.320;15.998;2023-02-21T08:15:23;10.09;62.49
69938;DHT22;57248;47.320;15.998;2023-02-21T08:17:55;10.81;61.10
69938;DHT22;57248;47.320;15.998;2023-02-21T08:20:27;11.49;61.33
69938;DHT22;57248;47.320;15.998;2023-02-21T08:22:59;11.20;59.37
69938;DHT22;57248;47.320;15.998;2023-02-21T08:25:32;11.78;58.60
69938;DHT22;57248;47.320;15.998;2023-02-21T08:28:04;12.16;57.70
69938;DHT22;57248;47.320;15.998;2023-02-21T08:30:36;13.13;55.73
69938;DHT22;57248;47.320;15.998;2023-02-21T08:33:09;13.60;54.08
69938;DHT22;57248;47.320;15.998;2023-02-21T08:35:40;14.17;53.76
69938;DHT22;57248;47.320;15.998;2023-02-21T08:38:13;14.73;52.86
69938;DHT22;57248;47.320;15.998;2023-02-21T08:40:44;14.87;53.74
69938;DHT22;57248;47.320;15.998;2023-02-21T08:43:17;15.37;49.67
69938;DHT22;57248;47.320;15.998;2023-02-21T08:45:49;15.70;48.67
69938;DHT22;57248;47.320;15.998;2023-02-21T08:48:20;15.92;46.77
69938;DHT22;57248;47.320;15.998;2023-02-21T08:50:53;16.63;45.32
69938;DHT22;57248;47.320;15.998;2023-02-21T08:53:31;17.04;44.46
69938;DHT22;57248;47.320;15.998;2023-02-21T08:56:04;19.65;42.91
69938;DHT22;57248;47.320;15.998;2023-02-21T08:58:35;20.85;39.42
69938;DHT22;57248;47.320;15.998;2023-02-21T09:01:08;20.27;38.05
69938;DHT22;57248;47.320;15.998;2023-02-21T09:03:41;21.57;38.30
69938;DHT22;57248;47.320;15.998;2023-02-21T09:06:13;22.02;37.97
69938;DHT22;57248;47.320;15.998;2023-02-21T09:08:44;22.88;35.17
69938;DHT22;57248;47.320;15.998;2023-02-21T09:11:17;23.77;35.01
69938;DHT22;57248;47.320;15.998;2023-02-21T09:13:49;23.71;33.00
69938;DHT22;57248;47.320;15.998;2023-02-21T09:16:21;23.37;33.41
69938;DHT22;57248;47.320;15.998;2023-02-21T09:18:55;22.28;35.27
69938;DHT22;57248;47.320;15.998;2023-02-21T09:21:29;21.97;35.43
69938;DHT22;57248;47.320;15.998;2023-02-21T09:24:02;23.26;30.32
69938;DHT22;57248;47.320;15.998;2023-02-21T09:26:34;23.10;30.31
69938;DHT22;57248;47.320;15.998;2023-02-21T09:29:06;22.89;30.11
69938;DHT22;57248;47.320;15.998;2023-02-21T09:31:38;23.02;30.61
69938;DHT22;57248;47.320;15.998;2023-02-21T09:34:09;23.41;30.09
69938;DHT22;57248;47.320;15.998;2023-02-21T09:36:42;22.63;30.63
69938;DHT22;57248;47.320;15.998;2023-02-21T09:39:15;21.22;30.13
69938;DHT22;57248;47.320;15.998;2023-02-21T09:41:49;21.53;30.38
69938;DHT22;57248;47.320;15.998;2023-02-21T09:44:26;22.34;30.79
69938;DHT22;57248;47.320;15.998;2023-02-21T09:47:04;23.13;29.01
69938;DHT22;57248;47.320;15.998;2023-02-21T09:49:39;22.56;30.10
69938;DHT22;57248;47.320;15.998;2023-02-21T09:52:26;23.20;29.99
69938;DHT22;57248;47.320;15.998;2023-02-21T09:55:27;22.62;29.73
69938;DHT22;57248;47.320;15.998;2023-02-21T09:58:00;22.27;28.83
69938;DHT22;57248;47.320;15.998;2023-02-21T10:00:35;22.53;28.80
69938;DHT22;57248;47.320;15.998;2023-02-21T10:03:44;23.74;27.40
69938;DHT22;57248;47.320;15.998;2023-02-21T10:06:38;22.63;28.84
69938;DHT22;57248;47.320;15.998;2023-02-21T10:09:41;22.79;28.38
69938;DHT22;57248;47.320;15.998;2023-02-21T10:12:33;24.37;27.55
69938;DHT22;57248;47.320;15.998;2023-02-21T10:15:40;23.95;27.76
69938;DHT22;57248;47.320;15.998;2023-02-21T10:21:03;24.02;27.40
69938;DHT22;57248;47.320;15.998;2023-02-21T10:23:48;23.28;27.03
69938;DHT22;57248;47.320;15.998;2023-02-21T10:26:27;23.27;27.45
69938;DHT22;57248;47.320;15.998;2023-02-21T10:29:00;23.46;27.59
69938;DHT22;57248;47.320;15.998;2023-02-21T10:31:37;24.29;25.97
69938;DHT22;57248;47.320;15.998;2023-02-21T10:34:21;24.70;25.89
69938;DHT22;57248;47.320;15.998;2023-02-21T10:36:55;23.55;26.71
69938;DHT22;57248;47.320;15.998;2023-02-21T10:39:57;22.92;26.16
69938;DHT22;57248;47.320;15.998;2023-02-21T10:43:10;24.35;26.42
69938;DHT22;57248;47.320;15.998;2023-02-21T10:45:48;24.41;26.83
69938;DHT22;57248;47.320;15.998;2023-02-21T10:48:24;23.86;26.51
69938;DHT22;57248;47.320;15.998;2023-02-21T10:53:37;24.64;25.75
69938;DHT22;57248;47.320;15.998;2023-02-21T10:59:03;25.39;24.61
69938;DHT22;57248;47.320;15.998;2023-02-21T11:01:42;25.55;22.94
69938;DHT22;57248;47.320;15.998;2023-02-21T11:07:03;25.82;22.57
69938;DHT22;57248;47.320;15.998;2023-02-21T11:09:42;26.00;22.15
69938;DHT22;57248;47.320;15.998;2023-02-21T11:12:25;27.02;21.53
69938;DHT22;57248;47.320;15.998;2023-02-21T11:17:32;25.83;21.63
69938;DHT22;57248;47.320;15.998;2023-02-21T11:20:18;27.23;21.00
69938;DHT22;57248;47.320;15.998;2023-02-21T11:22:51;27.03;21.38
69938;DHT22;57248;47.320;15.998;2023-02-21T11:25:27;27.63;20.65
69938;DHT22;57248;47.320;15.998;2023-02-21T11:31:12;31.47;18.93
69938;DHT22;57248;47.320;15.998;2023-02-21T11:33:54;33.35;19.02
69938;DHT22;57248;47.320;15.998;2023-02-21T11:36:30;32.24;17.57
69938;DHT22;57248;47.320;15.998;2023-02-21T11:41:46;27.91;20.23
69938;DHT22;57248;47.320;15.998;2023-02-21T11:44:32;29.73;19.06
69938;DHT22;57248;47.320;15.998;2023-02-21T11:52:53;31.73;18.02
69938;DHT22;57248;47.320;15.998;2023-02-21T11:55:27;32.41;18.36
69938;DHT22;57248;47.320;15.998;2023-02-21T11:58:25;32.96;18.69
69938;DHT22;57248;47.320;15.998;2023-02-21T12:01:15;34.60;17.37
69938;DHT22;57248;47.320;15.998;2023-02-21T12:12:21;32.75;19.53
69938;DHT22;57248;47.320;15.998;2023-02-21T12:15:10;33.26;19.85
69938;DHT22;57248;47.320;15.998;2023-02-21T12:17:59;32.79;19.89
69938;DHT22;57248;47.320;15.998;2023-02-21T12:23:51;34.53;18.44
69938;DHT22;57248;47.320;15.998;2023-02-21T12:47:00;33.50;19.41
69938;DHT22;57248;47.320;15.998;2023-02-21T12:49:50;31.22;20.05
69938;DHT22;57248;47.320;15.998;2023-02-21T12:52:31;31.59;20.77
69938;DHT22;57248;47.320;15.998;2023-02-21T12:55:20;31.21;20.64
69938;DHT22;57248;47.320;15.998;2023-02-21T12:57:59;32.21;20.47
69938;DHT22;57248;47.320;15.998;2023-02-21T13:00:40;31.30;20.88
69938;DHT22;57248;47.320;15.998;2023-02-21T13:06:25;31.09;21.26
69938;DHT22;57248;47.320;15.998;2023-02-21T13:11:42;32.18;19.99
69938;DHT22;57248;47.320;15.998;2023-02-21T13:14:19;31.49;19.26
69938;DHT22;57248;47.320;15.998;2023-02-21T13:16:54;31.07;20.63
69938;DHT22;57248;47.320;15.998;2023-02-21T13:19:34;30.57;21.14
69938;DHT22;57248;47.320;15.998;2023-02-21T13:26:07;32.14;19.59
69938;DHT22;57248;47.320;15.998;2023-02-21T13:28:44;32.48;19.97
69938;DHT22;57248;47.320;15.998;2023-02-21T13:31:20;32.64;20.04
69938;DHT22;57248;47.320;15.998;2023-02-21T13:33:58;32.87;19.76
69938;DHT22;57248;47.320;15.998;2023-02-21T13:39:29;32.51;19.88
69938;DHT22;57248;47.320;15.998;2023-02-21T13:42:17;32.17;20.13
69938;DHT22;57248;47.320;15.998;2023-02-21T13:44:54;32.35;20.07
69938;DHT22;57248;47.320;15.998;2023-02-21T13:58:47;29.24;22.29
69938;DHT22;57248;47.320;15.998;2023-02-21T14:07:10;28.89;22.23
69938;DHT22;57248;47.320;15.998;2023-02-21T14:09:45;28.63;23.57
69938;DHT22;57248;47.320;15.998;2023-02-21T14:12:17;27.90;23.04
69938;DHT22;57248;47.320;15.998;2023-02-21T14:14:49;26.01;24.73
69938;DHT22;57248;47.320;15.998;2023-02-21T14:17:27;26.23;24.91
69938;DHT22;57248;47.320;15.998;2023-02-21T14:19:59;26.64;24.26
69938;DHT22;57248;47.320;15.998;2023-02-21T14:22:33;25.38;25.47
69938;DHT22;57248;47.320;15.998;2023-02-21T14:25:17;26.16;25.44
69938;DHT22;57248;47.320;15.998;2023-02-21T14:27:50;25.31;26.55
69938;DHT22;57248;47.320;15.998;2023-02-21T14:30:28;24.52;26.51
69938;DHT22;57248;47.320;15.998;2023-02-21T14:33:27;25.50;25.29
69938;DHT22;57248;47.320;15.998;2023-02-21T14:36:06;24.92;25.40
69938;DHT22;57248;47.320;15.998;2023-02-21T14:38:41;24.83;25.96
69938;DHT22;57248;47.320;15.998;2023-02-21T14:41:55;24.90;26.08
69938;DHT22;57248;47.320;15.998;2023-02-21T14:44:36;25.24;24.89
69938;DHT22;57248;47.320;15.998;2023-02-21T15:02:47;22.24;26.88
69938;DHT22;57248;47.320;15.998;2023-02-21T15:08:21;22.08;27.86
69938;DHT22;57248;47.320;15.998;2023-02-21T15:11:01;21.57;28.42
69938;DHT22;57248;47.320;15.998;2023-02-21T15:13:34;21.13;29.46
69938;DHT22;57248;47.320;15.998;2023-02-21T15:16:11;20.63;30.88
69938;DHT22;57248;47.320;15.998;2023-02-21T15:18:59;20.55;30.70
69938;DHT22;57248;47.320;15.998;2023-02-21T15:21:32;20.26;30.94
69938;DHT22;57248;47.320;15.998;2023-02-21T15:24:12;20.14;31.32
69938;DHT22;57248;47.320;15.998;2023-02-21T15:26:45;19.82;31.49
69938;DHT22;57248;47.320;15.998;2023-02-21T15:29:17;19.47;31.76
69938;DHT22;57248;47.320;15.998;2023-02-21T15:31:52;19.17;32.72
69938;DHT22;57248;47.320;15.998;2023-02-21T15:34:28;19.27;32.64
69938;DHT22;57248;47.320;15.998;2023-02-21T15:37:18;19.38;32.48
69938;DHT22;57248;47.320;15.998;2023-02-21T15:39:57;19.08;33.36
69938;DHT22;57248;47.320;15.998;2023-02-21T15:42:29;18.99;33.77
69938;DHT22;57248;47.320;15.998;2023-02-21T15:45:07;18.79;34.17
69938;DHT22;57248;47.320;15.998;2023-02-21T15:47:41;18.55;33.82
69938;DHT22;57248;47.320;15.998;2023-02-21T15:56:23;18.34;34.20
69938;DHT22;57248;47.320;15.998;2023-02-21T16:04:47;17.66;35.09
69938;DHT22;57248;47.320;15.998;2023-02-21T16:10:07;17.02;37.28
69938;DHT22;57248;47.320;15.998;2023-02-21T16:12:42;16.82;38.27
69938;DHT22;57248;47.320;15.998;2023-02-21T16:17:57;16.61;38.90
69938;DHT22;57248;47.320;15.998;2023-02-21T16:20:37;15.86;41.60
69938;DHT22;57248;47.320;15.998;2023-02-21T16:23:23;15.95;40.08
69938;DHT22;57248;47.320;15.998;2023-02-21T16:26:22;15.18;43.06
69938;DHT22;57248;47.320;15.998;2023-02-21T16:28:58;15.57;41.90
69938;DHT22;57248;47.320;15.998;2023-02-21T16:31:32;15.34;42.73
69938;DHT22;57248;47.320;15.998;2023-02-21T16:34:05;15.04;43.12
69938;DHT22;57248;47.320;15.998;2023-02-21T16:36:38;14.45;44.08
69938;DHT22;57248;47.320;15.998;2023-02-21T16:39:11;14.38;43.93
69938;DHT22;57248;47.320;15.998;2023-02-21T16:41:43;14.38;44.67
69938;DHT22;57248;47.320;15.998;2023-02-21T16:44:15;14.56;44.11
69938;DHT22;57248;47.320;15.998;2023-02-21T16:46:49;14.38;44.77
69938;DHT22;57248;47.320;15.998;2023-02-21T16:49:22;14.35;46.08
69938;DHT22;57248;47.320;15.998;2023-02-21T16:51:55;14.02;47.24
69938;DHT22;57248;47.320;15.998;2023-02-21T16:54:27;14.18;46.62
69938;DHT22;57248;47.320;15.998;2023-02-21T16:57:07;14.02;47.24
69938;DHT22;57248;47.320;15.998;2023-02-21T16:59:40;13.84;47.57
69938;DHT22;57248;47.320;15.998;2023-02-21T17:02:13;13.26;49.72
69938;DHT22;57248;47.320;15.998;2023-02-21T17:04:46;13.23;48.40
69938;DHT22;57248;47.320;15.998;2023-02-21T17:07:18;13.35;48.36
69938;DHT22;57248;47.320;15.998;2023-02-21T17:09:51;13.44;48.66
69938;DHT22;57248;47.320;15.998;2023-02-21T17:12:23;13.44;48.91
69938;DHT22;57248;47.320;15.998;2023-02-21T17:14:55;13.35;48.85
69938;DHT22;57248;47.320;15.998;2023-02-21T17:17:27;12.92;50.59
69938;DHT22;57248;47.320;15.998;2023-02-21T17:19:59;13.00;50.05
69938;DHT22;57248;47.320;15.998;2023-02-21T17:22:31;12.77;50.64
69938;DHT22;57248;47.320;15.998;2023-02-21T17:25:03;12.71;50.65
69938;DHT22;57248;47.320;15.998;2023-02-21T17:27:35;12.65;50.94
69938;DHT22;57248;47.320;15.998;2023-02-21T17:30:08;12.37;51.55
69938;DHT22;57248;47.320;15.998;2023-02-21T17:32:41;12.30;51.82
69938;DHT22;57248;47.320;15.998;2023-02-21T17:35:17;12.30;51.94
69938;DHT22;57248;47.320;15.998;2023-02-21T17:37:50;12.00;52.57
69938;DHT22;57248;47.320;15.998;2023-02-21T17:40:22;11.76;53.23
69938;DHT22;57248;47.320;15.998;2023-02-21T17:42:55;11.75;52.62
69938;DHT22;57248;47.320;15.998;2023-02-21T17:45:27;11.49;54.06
69938;DHT22;57248;47.320;15.998;2023-02-21T17:47:59;11.48;53.71
69938;DHT22;57248;47.320;15.998;2023-02-21T17:50:24;11.62;52.90
69938;DHT22;57248;47.320;15.998;2023-02-21T17:53:04;11.57;53.33
69938;DHT22;57248;47.320;15.998;2023-02-21T17:55:43;11.52;53.32
69938;DHT22;57248;47.320;15.998;2023-02-21T17:58:16;11.43;54.01
69938;DHT22;57248;47.320;15.998;2023-02-21T18:00:49;11.48;53.71
69938;DHT22;57248;47.320;15.998;2023-02-21T18:03:21;11.55;54.33
69938;DHT22;57248;47.320;15.998;2023-02-21T18:05:54;11.69;53.17
69938;DHT22;57248;47.320;15.998;2023-02-21T18:08:26;11.51;54.50
69938;DHT22;57248;47.320;15.998;2023-02-21T18:10:58;11.43;54.29
69938;DHT22;57248;47.320;15.998;2023-02-21T18:13:31;11.12;55.57
69938;DHT22;57248;47.320;15.998;2023-02-21T18:16:03;10.97;56.28
69938;DHT22;57248;47.320;15.998;2023-02-21T18:18:36;11.32;53.93
69938;DHT22;57248;47.320;15.998;2023-02-21T18:21:08;11.45;52.82
69938;DHT22;57248;47.320;15.998;2023-02-21T18:23:46;11.51;52.62
69938;DHT22;57248;47.320;15.998;2023-02-21T18:26:18;10.96;55.38
69938;DHT22;57248;47.320;15.998;2023-02-21T18:28:51;10.36;58.31
69938;DHT22;57248;47.320;15.998;2023-02-21T18:31:23;10.63;56.43
69938;DHT22;57248;47.320;15.998;2023-02-21T18:34:02;10.15;58.17
69938;DHT22;57248;47.320;15.998;2023-02-21T18:36:36;10.38;57.36
69938;DHT22;57248;47.320;15.998;2023-02-21T18:39:06;10.56;56.44
69938;DHT22;57248;47.320;15.998;2023-02-21T18:41:38;10.52;56.17
69938;DHT22;57248;47.320;15.998;2023-02-21T18:44:11;10.52;56.29
69938;DHT22;57248;47.320;15.998;2023-02-21T18:46:53;10.48;56.48
69938;DHT22;57248;47.320;15.998;2023-02-21T18:49:26;10.26;56.98
69938;DHT22;57248;47.320;15.998;2023-02-21T18:51:58;9.67;59.30